createdAt,value
2023-05-09T00:01:45.479Z,8.53
2023-05-09T00:04:50.342Z,8.50
2023-05-09T00:07:52.445Z,8.45
2023-05-09T00:10:54.279Z,8.46
2023-05-09T00:13:55.993Z,8.34
2023-05-09T00:17:00.219Z,8.17
2023-05-09T00:20:05.290Z,7.91
2023-05-09T00:23:07.691Z,7.68
2023-05-09T00:26:10.579Z,7.67
2023-05-09T00:29:13.946Z,7.52
2023-05-09T00:32:15.875Z,7.60
2023-05-09T00:35:17.847Z,7.40
2023-05-09T00:38:19.678Z,7.27
2023-05-09T00:41:21.783Z,7.42
2023-05-09T00:44:23.613Z,7.40
2023-05-09T00:47:27.448Z,7.36
2023-05-09T00:50:29.259Z,7.35
2023-05-09T00:53:31.338Z,7.48
2023-05-09T00:56:33.407Z,7.34
2023-05-09T00:59:36.052Z,7.50
2023-05-09T01:02:38.020Z,7.55
2023-05-09T01:06:07.025Z,7.58
2023-05-09T01:09:30.349Z,6.73
2023-05-09T01:12:49.807Z,7.62
2023-05-09T01:16:01.477Z,7.56
2023-05-09T01:19:36.731Z,7.55
2023-05-09T01:22:46.142Z,7.48
2023-05-09T01:25:47.858Z,7.48
2023-05-09T01:29:09.997Z,7.29
2023-05-09T01:32:21.156Z,7.19
2023-05-09T01:35:26.505Z,7.21
2023-05-09T01:38:32.240Z,7.27
2023-05-09T01:41:37.697Z,7.24
2023-05-09T01:44:43.749Z,7.12
2023-05-09T01:47:48.088Z,7.09
2023-05-09T01:50:50.104Z,7.05
2023-05-09T01:53:55.324Z,7.06
2023-05-09T01:56:59.238Z,7.14
2023-05-09T02:00:03.869Z,7.21
2023-05-09T02:03:15.206Z,7.18
2023-05-09T02:06:21.140Z,7.50
2023-05-09T02:09:23.107Z,7.40
2023-05-09T02:12:25.171Z,7.50
2023-05-09T02:15:29.299Z,7.55
2023-05-09T02:18:32.777Z,7.50
2023-05-09T02:21:35.884Z,7.56
2023-05-09T02:24:38.006Z,7.52
2023-05-09T02:27:40.681Z,7.22
2023-05-09T02:30:45.844Z,7.50
2023-05-09T02:33:48.023Z,7.37
2023-05-09T02:50:33.980Z,7.49
2023-05-09T02:53:35.972Z,7.51
2023-05-09T02:56:38.160Z,7.60
2023-05-09T02:59:39.899Z,7.58
2023-05-09T03:02:41.686Z,7.61
2023-05-09T03:05:50.068Z,7.62
2023-05-09T03:08:51.840Z,7.57
2023-05-09T03:11:56.034Z,7.69
2023-05-09T03:14:57.836Z,7.60
2023-05-09T03:17:59.944Z,7.53
2023-05-09T03:21:01.802Z,7.51
2023-05-09T03:24:07.691Z,7.65
2023-05-09T03:27:11.644Z,7.62
2023-05-09T03:30:13.975Z,7.60
2023-05-09T03:33:17.276Z,7.63
2023-05-09T03:36:19.384Z,7.56
2023-05-09T03:39:21.234Z,7.69
2023-05-09T03:42:29.117Z,7.71
2023-05-09T03:45:36.180Z,7.75
2023-05-09T03:48:39.580Z,7.84
2023-05-09T03:51:42.288Z,7.87
2023-05-09T03:54:51.370Z,7.94
2023-05-09T03:57:53.925Z,8.13
2023-05-09T04:00:56.541Z,8.05
2023-05-09T04:04:00.603Z,8.14
2023-05-09T04:07:04.512Z,7.94
2023-05-09T04:10:07.641Z,7.42
2023-05-09T04:13:10.051Z,8.07
2023-05-09T04:16:12.488Z,8.18
2023-05-09T04:19:14.880Z,8.19
2023-05-09T04:22:16.771Z,8.30
2023-05-09T04:25:20.595Z,8.43
2023-05-09T04:28:23.326Z,8.41
2023-05-09T04:31:27.185Z,8.54
2023-05-09T04:34:29.742Z,8.69
2023-05-09T04:37:35.806Z,8.81
2023-05-09T04:40:38.083Z,8.86
2023-05-09T04:43:39.923Z,8.81
2023-05-09T04:46:42.396Z,8.92
2023-05-09T04:49:44.245Z,8.89
2023-05-09T04:52:46.130Z,9.18
2023-05-09T04:55:48.033Z,9.12
2023-05-09T04:58:50.469Z,9.23
2023-05-09T05:01:52.308Z,9.30
2023-05-09T05:05:06.174Z,9.41
2023-05-09T05:08:14.153Z,9.54
2023-05-09T05:11:20.667Z,9.56
2023-05-09T05:14:22.752Z,9.69
2023-05-09T05:17:24.902Z,9.72
2023-05-09T05:20:27.434Z,9.82
2023-05-09T05:23:29.259Z,9.80
2023-05-09T05:26:34.252Z,9.96
2023-05-09T05:29:36.713Z,9.99
2023-05-09T05:32:38.907Z,10.16
2023-05-09T05:35:41.074Z,9.91
2023-05-09T05:38:42.789Z,10.25
2023-05-09T05:41:44.675Z,10.36
2023-05-09T05:44:46.826Z,10.50
2023-05-09T05:47:48.862Z,10.52
2023-05-09T05:50:51.441Z,10.60
2023-05-09T05:53:57.151Z,10.51
2023-05-09T05:57:00.234Z,10.93
2023-05-09T06:00:02.808Z,11.10
2023-05-09T06:03:16.096Z,11.38
2023-05-09T06:06:32.362Z,11.63
2023-05-09T06:09:34.134Z,11.94
2023-05-09T06:12:36.100Z,12.46
2023-05-09T06:15:37.857Z,13.27
2023-05-09T06:18:40.288Z,13.53
2023-05-09T06:21:42.057Z,13.40
2023-05-09T06:24:43.807Z,13.29
2023-05-09T06:27:45.618Z,13.53
2023-05-09T06:30:47.316Z,13.57
2023-05-09T06:33:49.065Z,13.49
2023-05-09T06:36:50.931Z,13.36
2023-05-09T06:39:54.645Z,13.64
2023-05-09T06:42:56.499Z,13.90
2023-05-09T06:45:58.296Z,14.36
2023-05-09T06:49:02.034Z,14.69
2023-05-09T06:52:03.888Z,15.32
2023-05-09T06:55:06.229Z,15.53
2023-05-09T06:58:08.158Z,15.89
2023-05-09T07:01:09.985Z,16.33
2023-05-09T07:04:11.749Z,16.43
2023-05-09T07:07:13.454Z,16.67
2023-05-09T07:10:15.133Z,16.95
2023-05-09T07:13:16.932Z,17.16
2023-05-09T07:16:18.764Z,17.34
2023-05-09T07:19:20.714Z,17.69
2023-05-09T07:22:22.489Z,17.51
2023-05-09T07:25:24.386Z,17.48
2023-05-09T07:28:26.332Z,17.21
2023-05-09T07:31:28.296Z,17.10
2023-05-09T07:34:29.981Z,18.00
2023-05-09T07:37:31.937Z,18.41
2023-05-09T07:40:36.439Z,18.16
2023-05-09T07:43:38.334Z,18.37
2023-05-09T07:46:42.054Z,18.46
2023-05-09T07:49:46.445Z,18.67
2023-05-09T07:52:49.715Z,18.46
2023-05-09T07:55:51.518Z,18.13
2023-05-09T07:58:55.068Z,18.21
2023-05-09T08:01:57.686Z,18.74
2023-05-09T08:04:59.508Z,19.23
2023-05-09T08:08:01.206Z,19.39
2023-05-09T08:11:02.860Z,19.22
2023-05-09T08:14:04.700Z,19.15
2023-05-09T08:17:06.533Z,19.43
2023-05-09T08:20:12.222Z,19.52
2023-05-09T08:23:14.229Z,19.45
2023-05-09T08:26:16.211Z,18.82
2023-05-09T08:29:18.163Z,18.70
2023-05-09T08:32:20.204Z,18.71
2023-05-09T08:35:22.169Z,18.50
2023-05-09T08:38:24.856Z,18.04
2023-05-09T08:41:30.158Z,17.96
2023-05-09T08:44:32.362Z,17.52
2023-05-09T08:47:44.643Z,17.74
2023-05-09T08:50:47.237Z,17.52
2023-05-09T08:53:49.101Z,17.55
2023-05-09T08:56:51.635Z,17.71
2023-05-09T08:59:55.088Z,17.73
2023-05-09T09:03:00.881Z,17.72
2023-05-09T09:06:03.238Z,17.54
2023-05-09T09:09:08.767Z,17.45
2023-05-09T09:12:11.678Z,17.50
2023-05-09T09:15:17.956Z,17.53
2023-05-09T09:18:23.906Z,17.60
2023-05-09T09:21:26.308Z,17.87
2023-05-09T09:24:28.244Z,17.90
2023-05-09T09:27:30.022Z,18.05
2023-05-09T09:30:32.643Z,18.10
2023-05-09T09:33:35.813Z,18.34
2023-05-09T09:36:37.542Z,17.99
2023-05-09T09:39:54.200Z,17.94
2023-05-09T09:42:56.017Z,18.07
2023-05-09T09:46:01.493Z,18.22
2023-05-09T09:49:03.298Z,18.31
2023-05-09T09:52:05.046Z,18.12
2023-05-09T09:55:07.363Z,18.11
2023-05-09T09:58:21.940Z,18.07
2023-05-09T10:01:24.721Z,18.10
2023-05-09T10:04:30.082Z,18.29
2023-05-09T10:07:34.405Z,18.26
2023-05-09T10:10:37.768Z,18.50
2023-05-09T10:13:39.592Z,18.50
2023-05-09T10:16:44.232Z,18.56
2023-05-09T10:19:49.341Z,18.69
2023-05-09T10:22:55.948Z,18.59
2023-05-09T10:26:29.035Z,18.85
2023-05-09T10:29:35.362Z,19.18
2023-05-09T10:33:03.300Z,19.38
2023-05-09T10:36:06.549Z,19.44
2023-05-09T10:39:08.400Z,19.42
2023-05-09T10:42:10.839Z,19.50
2023-05-09T10:45:13.507Z,19.59
2023-05-09T10:48:16.293Z,19.79
2023-05-09T10:51:18.428Z,19.76
2023-05-09T10:54:30.870Z,20.02
2023-05-09T10:57:33.019Z,20.37
2023-05-09T11:00:41.598Z,20.72
2023-05-09T11:03:57.091Z,20.70
2023-05-09T11:07:00.546Z,20.10
2023-05-09T11:10:10.349Z,20.01
2023-05-09T11:13:12.219Z,20.16
2023-05-09T11:16:14.099Z,20.15
2023-05-09T11:19:34.192Z,20.12
2023-05-09T11:22:44.106Z,20.00
2023-05-09T11:25:47.992Z,19.88
2023-05-09T11:28:54.201Z,19.91
2023-05-09T11:32:06.465Z,19.73
2023-05-09T11:35:15.800Z,19.35
2023-05-09T11:38:21.493Z,19.05
2023-05-09T11:41:24.164Z,18.92
2023-05-09T11:44:27.946Z,19.23
2023-05-09T11:47:30.957Z,19.68
2023-05-09T11:50:33.113Z,19.74
2023-05-09T11:53:36.279Z,19.44
2023-05-09T11:56:40.388Z,18.69
2023-05-09T11:59:42.168Z,18.30
2023-05-09T12:02:45.886Z,18.16
2023-05-09T12:05:48.610Z,18.18
2023-05-09T12:08:50.647Z,18.42
2023-05-09T12:11:52.627Z,18.71
2023-05-09T12:14:54.794Z,18.78
2023-05-09T12:18:06.912Z,18.85
2023-05-09T12:21:08.755Z,18.95
2023-05-09T12:24:10.535Z,19.04
2023-05-09T12:27:12.764Z,19.53
2023-05-09T12:30:16.229Z,19.49
2023-05-09T12:33:18.919Z,19.88
2023-05-09T12:36:21.377Z,19.43
2023-05-09T12:39:23.262Z,19.67
2023-05-09T12:42:28.605Z,19.71
2023-05-09T12:45:33.699Z,19.63
2023-05-09T12:48:38.048Z,19.60
2023-05-09T12:51:48.438Z,19.18
2023-05-09T12:54:52.866Z,19.15
2023-05-09T12:58:02.567Z,19.00
2023-05-09T13:01:05.734Z,18.99
2023-05-09T13:04:07.763Z,18.94
2023-05-09T13:07:12.679Z,18.96
2023-05-09T13:10:21.556Z,19.06
2023-05-09T13:13:26.716Z,19.00
2023-05-09T13:16:29.025Z,18.76
2023-05-09T13:19:30.755Z,18.80
2023-05-09T13:22:32.975Z,18.74
2023-05-09T13:25:34.789Z,18.72
2023-05-09T13:28:36.605Z,18.57
2023-05-09T13:31:38.392Z,18.33
2023-05-09T13:34:41.490Z,18.50
2023-05-09T13:37:43.815Z,18.79
2023-05-09T13:40:45.844Z,18.94
2023-05-09T13:43:48.177Z,19.04
2023-05-09T13:46:50.624Z,18.96
2023-05-09T13:49:52.831Z,18.81
2023-05-09T13:52:54.564Z,18.81
2023-05-09T13:55:56.304Z,18.91
2023-05-09T13:58:58.188Z,19.13
2023-05-09T14:02:01.225Z,19.29
2023-05-09T14:05:04.358Z,19.44
2023-05-09T14:08:07.958Z,19.47
2023-05-09T14:11:09.661Z,19.64
2023-05-09T14:14:11.644Z,19.63
2023-05-09T14:17:13.466Z,19.54
2023-05-09T14:20:18.286Z,19.63
2023-05-09T14:23:20.362Z,19.69
2023-05-09T14:26:22.275Z,19.60
2023-05-09T14:29:23.962Z,19.71
2023-05-09T14:32:25.686Z,19.56
2023-05-09T14:35:27.743Z,19.65
2023-05-09T14:38:29.825Z,19.69
2023-05-09T14:41:31.886Z,19.61
2023-05-09T14:44:33.610Z,19.49
2023-05-09T14:47:35.422Z,19.49
2023-05-09T14:50:37.321Z,19.47
2023-05-09T14:53:42.146Z,19.51
2023-05-09T14:56:44.312Z,19.64
2023-05-09T14:59:46.155Z,19.50
2023-05-09T15:02:47.951Z,19.31
2023-05-09T15:05:50.784Z,19.26
2023-05-09T15:08:52.652Z,19.52
2023-05-09T15:11:55.114Z,19.75
2023-05-09T15:15:11.650Z,19.85
2023-05-09T15:18:15.942Z,19.77
2023-05-09T15:21:17.796Z,19.69
2023-05-09T15:24:19.524Z,19.78
2023-05-09T15:27:21.531Z,19.53
2023-05-09T15:30:23.455Z,19.41
2023-05-09T15:33:25.571Z,19.46
2023-05-09T15:36:30.130Z,19.51
2023-05-09T15:39:34.793Z,19.14
2023-05-09T15:42:37.679Z,18.64
2023-05-09T15:45:45.267Z,18.22
2023-05-09T15:48:47.303Z,18.45
2023-05-09T15:51:49.093Z,18.19
2023-05-09T15:54:50.958Z,18.03
2023-05-09T15:57:52.783Z,17.97
2023-05-09T16:00:54.534Z,17.86
2023-05-09T16:03:56.573Z,17.79
2023-05-09T16:06:58.725Z,17.74
2023-05-09T16:10:00.661Z,17.60
2023-05-09T16:13:02.423Z,17.51
2023-05-09T16:16:04.572Z,17.45
2023-05-09T16:19:07.206Z,17.47
2023-05-09T16:22:09.070Z,17.44
2023-05-09T16:25:11.433Z,17.30
2023-05-09T16:28:13.333Z,17.20
2023-05-09T16:31:14.980Z,17.02
2023-05-09T16:34:16.866Z,16.79
2023-05-09T16:37:19.105Z,16.78
2023-05-09T16:40:21.338Z,16.05
2023-05-09T16:43:23.016Z,16.65
2023-05-09T16:46:24.882Z,16.55
2023-05-09T16:49:26.828Z,16.46
2023-05-09T16:52:29.579Z,16.40
2023-05-09T16:55:31.436Z,16.34
2023-05-09T16:58:34.429Z,16.27
2023-05-09T17:01:37.857Z,16.19
2023-05-09T17:04:39.618Z,16.14
2023-05-09T17:07:41.547Z,16.12
2023-05-09T17:10:43.239Z,16.13
2023-05-09T17:13:45.117Z,16.16
2023-05-09T17:16:46.888Z,16.31
2023-05-09T17:19:49.011Z,16.31
2023-05-09T17:22:50.696Z,16.34
2023-05-09T17:25:52.519Z,16.52
2023-05-09T17:28:54.266Z,16.45
2023-05-09T17:32:02.293Z,16.59
2023-05-09T17:35:05.013Z,16.46
2023-05-09T17:38:06.835Z,16.29
2023-05-09T17:41:08.588Z,16.39
2023-05-09T17:44:11.308Z,16.44
2023-05-09T17:47:14.277Z,16.38
2023-05-09T17:50:17.315Z,16.30
2023-05-09T17:53:19.459Z,16.38
2023-05-09T17:56:22.482Z,16.27
2023-05-09T17:59:24.320Z,16.23
2023-05-09T18:02:27.391Z,16.14
2023-05-09T18:05:29.319Z,15.96
2023-05-09T18:08:31.160Z,15.93
2023-05-09T18:11:33.396Z,15.77
2023-05-09T18:14:35.847Z,15.68
2023-05-09T18:17:37.981Z,15.74
2023-05-09T18:20:39.850Z,15.75
2023-05-09T18:23:41.685Z,15.73
2023-05-09T18:26:43.557Z,15.54
2023-05-09T18:29:47.487Z,15.72
2023-05-09T18:32:49.379Z,15.74
2023-05-09T18:35:52.298Z,15.73
2023-05-09T18:38:54.231Z,15.70
2023-05-09T18:41:55.975Z,15.69
2023-05-09T18:45:00.628Z,15.66
2023-05-09T18:48:03.054Z,14.91
2023-05-09T18:51:05.056Z,15.62
2023-05-09T18:54:07.975Z,15.52
2023-05-09T18:57:09.971Z,15.39
2023-05-09T19:00:12.680Z,15.55
2023-05-09T19:03:14.439Z,15.44
2023-05-09T19:06:16.578Z,15.41
2023-05-09T19:09:18.525Z,15.34
2023-05-09T19:12:20.427Z,15.36
2023-05-09T19:15:23.327Z,15.30
2023-05-09T19:18:25.169Z,15.23
2023-05-09T19:21:28.365Z,15.17
2023-05-09T19:24:32.135Z,15.21
2023-05-09T19:27:33.937Z,14.99
2023-05-09T19:30:36.118Z,15.07
2023-05-09T19:33:38.264Z,15.06
2023-05-09T19:36:40.173Z,15.04
2023-05-09T19:39:41.932Z,14.99
2023-05-09T19:42:43.637Z,15.02
2023-05-09T19:45:45.571Z,15.01
2023-05-09T19:48:47.392Z,14.95
2023-05-09T19:51:49.314Z,14.89
2023-05-09T19:54:51.181Z,14.83
2023-05-09T19:57:53.083Z,14.81
2023-05-09T20:00:54.887Z,14.77
2023-05-09T20:03:57.005Z,14.69
2023-05-09T20:06:58.921Z,14.47
2023-05-09T20:10:00.678Z,14.57
2023-05-09T20:13:04.410Z,14.48
2023-05-09T20:16:06.541Z,14.44
2023-05-09T20:19:09.055Z,14.44
2023-05-09T20:22:11.598Z,14.40
2023-05-09T20:25:13.976Z,14.34
2023-05-09T20:28:20.149Z,14.29
2023-05-09T20:31:21.950Z,14.24
2023-05-09T20:34:24.862Z,14.24
2023-05-09T20:37:26.635Z,14.09
2023-05-09T20:40:28.705Z,13.94
2023-05-09T20:43:30.674Z,13.89
2023-05-09T20:46:32.597Z,13.86
2023-05-09T20:49:34.394Z,13.77
2023-05-09T20:52:36.262Z,13.62
2023-05-09T20:55:38.006Z,13.79
2023-05-09T20:58:39.776Z,13.72
2023-05-09T21:01:42.010Z,13.73
2023-05-09T21:04:44.491Z,13.62
2023-05-09T21:07:46.363Z,13.59
2023-05-09T21:10:51.506Z,13.57
2023-05-09T21:13:53.279Z,13.59
2023-05-09T21:16:58.107Z,13.49
2023-05-09T21:19:59.910Z,13.42
2023-05-09T21:23:01.677Z,13.27
2023-05-09T21:26:03.503Z,13.10
2023-05-09T21:29:05.416Z,12.94
2023-05-09T21:32:07.203Z,12.81
2023-05-09T21:35:12.715Z,12.90
2023-05-09T21:38:14.582Z,12.77
2023-05-09T21:41:16.397Z,12.75
2023-05-09T21:44:18.128Z,12.66
2023-05-09T21:47:19.935Z,12.59
2023-05-09T21:50:21.942Z,12.29
2023-05-09T21:53:23.785Z,12.40
2023-05-09T21:56:25.488Z,12.32
2023-05-09T21:59:27.286Z,12.40
2023-05-09T22:02:29.239Z,12.16
2023-05-09T22:05:31.423Z,12.11
2023-05-09T22:08:33.316Z,12.09
2023-05-09T22:11:35.397Z,12.03
2023-05-09T22:14:45.177Z,11.99
2023-05-09T22:17:54.657Z,11.94
2023-05-09T22:20:56.487Z,11.76
2023-05-09T22:23:58.274Z,11.67
2023-05-09T22:27:00.036Z,11.50
2023-05-09T22:30:02.832Z,11.54
2023-05-09T22:33:04.774Z,11.46
2023-05-09T22:36:07.225Z,11.47
2023-05-09T22:39:12.019Z,11.44
2023-05-09T22:42:13.754Z,11.32
2023-05-09T22:45:15.628Z,11.33
2023-05-09T22:48:17.484Z,11.08
2023-05-09T22:51:19.180Z,11.07
2023-05-09T22:54:22.299Z,11.03
2023-05-09T22:57:24.120Z,10.96
2023-05-09T23:00:25.874Z,10.93
2023-05-09T23:03:27.739Z,10.96
2023-05-09T23:06:29.673Z,10.89
2023-05-09T23:09:31.537Z,10.57
2023-05-09T23:12:33.372Z,10.87
2023-05-09T23:15:35.535Z,10.23
2023-05-09T23:18:37.220Z,10.67
2023-05-09T23:21:39.030Z,10.56
2023-05-09T23:24:41.304Z,10.59
2023-05-09T23:27:44.657Z,10.50
2023-05-09T23:30:46.302Z,10.54
2023-05-09T23:33:48.005Z,10.37
2023-05-09T23:36:49.747Z,10.35
2023-05-09T23:39:51.525Z,10.39
2023-05-09T23:42:53.345Z,10.31
2023-05-09T23:45:56.749Z,10.14
2023-05-09T23:48:58.584Z,10.12
2023-05-09T23:52:00.365Z,10.14
2023-05-09T23:55:02.375Z,9.99
2023-05-09T23:58:04.255Z,9.92
